This is the latest recevied weather packets stored in our database for station/object K7PMV-13. If no packets are shown the sender has not sent any weather packets the latest 10 day(s).
| Time | Temp. | Humidity | Pressure | Rain* | Wind** | Luminosity | Snow |
|---|---|---|---|---|---|---|---|
| 1777673488 | 31.67° C | 23% | 1005 hPa | 0 mm | - | 714 W/m² | - |
| 1777673185 | 31.67° C | 23% | 1005.2 hPa | 0 mm | - | 728 W/m² | - |
| 1777672881 | 31.11° C | 22% | 1005.3 hPa | 0 mm | - | 740 W/m² | - |
| 1777672578 | 31.67° C | 23% | 1005.2 hPa | 0 mm | - | 752 W/m² | - |
| 1777672276 | 31.67° C | 24% | 1005.3 hPa | 0 mm | - | 768 W/m² | - |
| 1777671973 | 31.67° C | 24% | 1005.4 hPa | 0 mm | - | 779 W/m² | - |
| 1777671668 | 31.67° C | 23% | 1005.5 hPa | 0 mm | - | 791 W/m² | - |
| 1777671358 | 31.67° C | 24% | 1005.5 hPa | 0 mm | - | 800 W/m² | - |
| 1777671056 | 31.67° C | 23% | 1005.6 hPa | 0 mm | - | 814 W/m² | - |
| 1777670753 | 31.67° C | 23% | 1005.7 hPa | 0 mm | - | 824 W/m² | - |
| 1777670443 | 31.11° C | 24% | 1005.8 hPa | 0 mm | - | 837 W/m² | - |
| 1777670197 | 31.11° C | 23% | 1006 hPa | 0 mm | - | 854 W/m² | - |
| 1777670140 | 31.11° C | 24% | 1005.9 hPa | 0 mm | - | 846 W/m² | - |
| 1777669837 | 31.11° C | 23% | 1006 hPa | 0 mm | - | 854 W/m² | - |
| 1777669535 | 31.67° C | 23% | 1006.1 hPa | 0 mm | - | 863 W/m² | - |
| 1777669229 | 31.11° C | 23% | 1006.1 hPa | 0 mm | - | 870 W/m² | - |
| 1777668926 | 31.67° C | 23% | 1006.1 hPa | 0 mm | - | 877 W/m² | - |
| 1777668624 | 30° C | 24% | 1006.2 hPa | 0 mm | - | 882 W/m² | - |
| 1777668321 | 30.56° C | 25% | 1006.3 hPa | 0 mm | - | 891 W/m² | - |
| 1777668018 | 30° C | 24% | 1006.4 hPa | 0 mm | - | 898 W/m² | - |
| 1777667716 | 30.56° C | 23% | 1006.5 hPa | 0 mm | - | 905 W/m² | - |
| 1777667413 | 31.11° C | 22% | 1006.5 hPa | 0 mm | - | 912 W/m² | - |
| 1777667111 | 30.56° C | 23% | 1006.5 hPa | 0 mm | - | 919 W/m² | - |
| 1777666808 | 30.56° C | 23% | 1006.6 hPa | 0 mm | - | 923 W/m² | - |
| 1777666505 | 31.11° C | 23% | 1006.6 hPa | 0 mm | - | 928 W/m² | - |
* Rain latest hour (hover to see other rain measurements)
** Current wind speed in m/s (hover to see current wind gust speed)